sensor_id;sensor_type;location;lat;lon;timestamp;P1;durP1;ratioP1;P2;durP2;ratioP2
52730;SDS011;38624;53.242;6.974;2023-04-06T00:01:41;12.48;;;8.55;;
52730;SDS011;38624;53.242;6.974;2023-04-06T00:04:07;10.90;;;8.40;;
52730;SDS011;38624;53.242;6.974;2023-04-06T00:06:32;11.05;;;8.63;;
52730;SDS011;38624;53.242;6.974;2023-04-06T00:08:59;11.15;;;8.65;;
52730;SDS011;38624;53.242;6.974;2023-04-06T00:11:25;13.35;;;9.10;;
52730;SDS011;38624;53.242;6.974;2023-04-06T00:13:51;13.52;;;8.88;;
52730;SDS011;38624;53.242;6.974;2023-04-06T00:16:17;12.52;;;8.80;;
52730;SDS011;38624;53.242;6.974;2023-04-06T00:18:43;12.00;;;8.70;;
52730;SDS011;38624;53.242;6.974;2023-04-06T00:21:12;14.18;;;9.23;;
52730;SDS011;38624;53.242;6.974;2023-04-06T00:23:39;15.45;;;9.10;;
52730;SDS011;38624;53.242;6.974;2023-04-06T00:26:05;13.88;;;8.93;;
52730;SDS011;38624;53.242;6.974;2023-04-06T00:28:31;13.25;;;9.10;;
52730;SDS011;38624;53.242;6.974;2023-04-06T00:30:57;14.50;;;9.82;;
52730;SDS011;38624;53.242;6.974;2023-04-06T00:33:23;12.80;;;9.27;;
52730;SDS011;38624;53.242;6.974;2023-04-06T00:35:48;13.88;;;9.80;;
52730;SDS011;38624;53.242;6.974;2023-04-06T00:38:15;17.70;;;10.20;;
52730;SDS011;38624;53.242;6.974;2023-04-06T00:40:41;14.35;;;9.57;;
52730;SDS011;38624;53.242;6.974;2023-04-06T00:43:09;12.90;;;8.77;;
52730;SDS011;38624;53.242;6.974;2023-04-06T00:45:35;15.38;;;9.20;;
52730;SDS011;38624;53.242;6.974;2023-04-06T00:48:03;13.25;;;9.45;;
52730;SDS011;38624;53.242;6.974;2023-04-06T00:50:29;13.43;;;9.40;;
52730;SDS011;38624;53.242;6.974;2023-04-06T00:52:54;14.82;;;9.77;;
52730;SDS011;38624;53.242;6.974;2023-04-06T00:55:21;13.27;;;9.30;;
52730;SDS011;38624;53.242;6.974;2023-04-06T00:57:46;12.45;;;9.15;;
52730;SDS011;38624;53.242;6.974;2023-04-06T01:00:12;14.90;;;9.68;;
52730;SDS011;38624;53.242;6.974;2023-04-06T01:02:39;13.43;;;9.48;;
52730;SDS011;38624;53.242;6.974;2023-04-06T01:05:05;15.45;;;10.35;;
52730;SDS011;38624;53.242;6.974;2023-04-06T01:07:31;13.07;;;9.45;;
52730;SDS011;38624;53.242;6.974;2023-04-06T01:09:57;14.57;;;10.07;;
52730;SDS011;38624;53.242;6.974;2023-04-06T01:12:23;16.70;;;10.10;;
52730;SDS011;38624;53.242;6.974;2023-04-06T01:14:49;13.90;;;9.98;;
52730;SDS011;38624;53.242;6.974;2023-04-06T01:17:15;15.48;;;9.98;;
52730;SDS011;38624;53.242;6.974;2023-04-06T01:19:41;15.32;;;10.50;;
52730;SDS011;38624;53.242;6.974;2023-04-06T01:22:07;13.77;;;10.38;;
52730;SDS011;38624;53.242;6.974;2023-04-06T01:24:33;14.57;;;10.63;;
52730;SDS011;38624;53.242;6.974;2023-04-06T01:26:59;16.38;;;10.48;;
52730;SDS011;38624;53.242;6.974;2023-04-06T01:29:25;13.82;;;10.65;;
52730;SDS011;38624;53.242;6.974;2023-04-06T01:31:51;16.25;;;10.15;;
52730;SDS011;38624;53.242;6.974;2023-04-06T01:34:17;17.95;;;10.77;;
52730;SDS011;38624;53.242;6.974;2023-04-06T01:36:43;15.10;;;10.10;;
52730;SDS011;38624;53.242;6.974;2023-04-06T01:39:08;13.77;;;10.05;;
52730;SDS011;38624;53.242;6.974;2023-04-06T01:41:34;15.60;;;10.55;;
52730;SDS011;38624;53.242;6.974;2023-04-06T01:44:00;14.15;;;10.40;;
52730;SDS011;38624;53.242;6.974;2023-04-06T01:46:26;14.07;;;10.10;;
52730;SDS011;38624;53.242;6.974;2023-04-06T01:48:52;16.40;;;10.38;;
52730;SDS011;38624;53.242;6.974;2023-04-06T01:51:18;16.25;;;10.80;;
52730;SDS011;38624;53.242;6.974;2023-04-06T01:53:44;16.63;;;11.00;;
52730;SDS011;38624;53.242;6.974;2023-04-06T01:56:10;15.80;;;10.60;;
52730;SDS011;38624;53.242;6.974;2023-04-06T01:58:36;15.88;;;11.13;;
52730;SDS011;38624;53.242;6.974;2023-04-06T02:01:01;18.73;;;11.40;;
52730;SDS011;38624;53.242;6.974;2023-04-06T02:03:27;19.52;;;10.93;;
52730;SDS011;38624;53.242;6.974;2023-04-06T02:05:53;16.95;;;10.80;;
52730;SDS011;38624;53.242;6.974;2023-04-06T02:08:18;14.48;;;11.07;;
52730;SDS011;38624;53.242;6.974;2023-04-06T02:10:44;13.60;;;10.10;;
52730;SDS011;38624;53.242;6.974;2023-04-06T02:13:10;14.80;;;10.80;;
52730;SDS011;38624;53.242;6.974;2023-04-06T02:15:36;16.85;;;10.75;;
52730;SDS011;38624;53.242;6.974;2023-04-06T02:18:02;15.40;;;11.02;;
52730;SDS011;38624;53.242;6.974;2023-04-06T02:20:27;16.55;;;11.70;;
52730;SDS011;38624;53.242;6.974;2023-04-06T02:22:53;15.20;;;11.07;;
52730;SDS011;38624;53.242;6.974;2023-04-06T02:25:19;15.48;;;10.48;;
52730;SDS011;38624;53.242;6.974;2023-04-06T02:27:45;14.43;;;10.60;;
52730;SDS011;38624;53.242;6.974;2023-04-06T02:30:10;14.93;;;10.63;;
52730;SDS011;38624;53.242;6.974;2023-04-06T02:32:36;13.73;;;10.75;;
52730;SDS011;38624;53.242;6.974;2023-04-06T02:35:02;15.18;;;11.07;;
52730;SDS011;38624;53.242;6.974;2023-04-06T02:37:28;18.70;;;11.20;;
52730;SDS011;38624;53.242;6.974;2023-04-06T02:39:54;15.98;;;11.18;;
52730;SDS011;38624;53.242;6.974;2023-04-06T02:42:19;15.70;;;11.38;;
52730;SDS011;38624;53.242;6.974;2023-04-06T02:44:45;16.85;;;10.95;;
52730;SDS011;38624;53.242;6.974;2023-04-06T02:47:11;17.10;;;11.13;;
52730;SDS011;38624;53.242;6.974;2023-04-06T02:49:37;17.38;;;11.35;;
52730;SDS011;38624;53.242;6.974;2023-04-06T02:52:02;16.58;;;11.43;;
52730;SDS011;38624;53.242;6.974;2023-04-06T02:54:28;16.23;;;11.38;;
52730;SDS011;38624;53.242;6.974;2023-04-06T02:56:54;16.20;;;11.05;;
52730;SDS011;38624;53.242;6.974;2023-04-06T02:59:20;16.13;;;11.20;;
52730;SDS011;38624;53.242;6.974;2023-04-06T03:01:45;16.77;;;11.38;;
52730;SDS011;38624;53.242;6.974;2023-04-06T03:04:11;16.00;;;10.93;;
52730;SDS011;38624;53.242;6.974;2023-04-06T03:06:37;15.40;;;11.40;;
52730;SDS011;38624;53.242;6.974;2023-04-06T03:09:03;20.08;;;11.82;;
52730;SDS011;38624;53.242;6.974;2023-04-06T03:11:28;16.10;;;11.60;;
52730;SDS011;38624;53.242;6.974;2023-04-06T03:13:54;15.30;;;11.02;;
52730;SDS011;38624;53.242;6.974;2023-04-06T03:16:20;18.23;;;12.00;;
52730;SDS011;38624;53.242;6.974;2023-04-06T03:18:46;18.70;;;11.32;;
52730;SDS011;38624;53.242;6.974;2023-04-06T03:21:12;16.30;;;11.27;;
52730;SDS011;38624;53.242;6.974;2023-04-06T03:23:40;18.90;;;11.98;;
52730;SDS011;38624;53.242;6.974;2023-04-06T03:26:06;15.30;;;11.30;;
52730;SDS011;38624;53.242;6.974;2023-04-06T03:28:32;19.58;;;11.60;;
52730;SDS011;38624;53.242;6.974;2023-04-06T03:30:58;17.20;;;11.32;;
52730;SDS011;38624;53.242;6.974;2023-04-06T03:33:24;18.30;;;11.70;;
52730;SDS011;38624;53.242;6.974;2023-04-06T03:35:52;21.45;;;11.50;;
52730;SDS011;38624;53.242;6.974;2023-04-06T03:38:18;17.17;;;11.38;;
52730;SDS011;38624;53.242;6.974;2023-04-06T03:40:44;19.45;;;12.48;;
52730;SDS011;38624;53.242;6.974;2023-04-06T03:43:10;17.23;;;12.48;;
52730;SDS011;38624;53.242;6.974;2023-04-06T03:45:36;18.83;;;11.85;;
52730;SDS011;38624;53.242;6.974;2023-04-06T03:48:02;17.77;;;11.95;;
52730;SDS011;38624;53.242;6.974;2023-04-06T03:50:28;17.38;;;12.15;;
52730;SDS011;38624;53.242;6.974;2023-04-06T03:52:53;15.75;;;11.80;;
52730;SDS011;38624;53.242;6.974;2023-04-06T03:55:19;18.00;;;12.02;;
52730;SDS011;38624;53.242;6.974;2023-04-06T03:57:45;17.15;;;12.10;;
52730;SDS011;38624;53.242;6.974;2023-04-06T04:00:11;16.95;;;11.95;;
52730;SDS011;38624;53.242;6.974;2023-04-06T04:02:37;18.10;;;12.05;;
52730;SDS011;38624;53.242;6.974;2023-04-06T04:05:03;15.63;;;11.50;;
52730;SDS011;38624;53.242;6.974;2023-04-06T04:07:29;19.92;;;11.88;;
52730;SDS011;38624;53.242;6.974;2023-04-06T04:09:54;18.27;;;11.48;;
52730;SDS011;38624;53.242;6.974;2023-04-06T04:12:20;18.50;;;12.48;;
52730;SDS011;38624;53.242;6.974;2023-04-06T04:14:46;20.27;;;12.10;;
52730;SDS011;38624;53.242;6.974;2023-04-06T04:17:11;18.42;;;12.48;;
52730;SDS011;38624;53.242;6.974;2023-04-06T04:19:37;17.40;;;12.23;;
52730;SDS011;38624;53.242;6.974;2023-04-06T04:22:03;17.25;;;12.15;;
52730;SDS011;38624;53.242;6.974;2023-04-06T04:24:30;16.10;;;11.82;;
52730;SDS011;38624;53.242;6.974;2023-04-06T04:26:56;18.20;;;11.95;;
52730;SDS011;38624;53.242;6.974;2023-04-06T04:29:22;19.37;;;13.13;;
52730;SDS011;38624;53.242;6.974;2023-04-06T04:31:48;19.90;;;12.63;;
52730;SDS011;38624;53.242;6.974;2023-04-06T04:34:14;17.38;;;12.60;;
52730;SDS011;38624;53.242;6.974;2023-04-06T04:36:40;21.65;;;13.60;;
52730;SDS011;38624;53.242;6.974;2023-04-06T04:39:09;19.67;;;13.60;;
52730;SDS011;38624;53.242;6.974;2023-04-06T04:41:35;17.87;;;12.63;;
52730;SDS011;38624;53.242;6.974;2023-04-06T04:44:00;17.80;;;12.48;;
52730;SDS011;38624;53.242;6.974;2023-04-06T04:46:26;18.58;;;12.68;;
52730;SDS011;38624;53.242;6.974;2023-04-06T04:48:52;18.10;;;12.57;;
52730;SDS011;38624;53.242;6.974;2023-04-06T04:51:17;18.50;;;13.60;;
52730;SDS011;38624;53.242;6.974;2023-04-06T04:53:44;20.25;;;13.35;;
52730;SDS011;38624;53.242;6.974;2023-04-06T04:56:10;19.48;;;13.40;;
52730;SDS011;38624;53.242;6.974;2023-04-06T04:58:36;20.08;;;13.57;;
52730;SDS011;38624;53.242;6.974;2023-04-06T05:01:02;23.07;;;13.27;;
52730;SDS011;38624;53.242;6.974;2023-04-06T05:03:28;19.67;;;14.03;;
52730;SDS011;38624;53.242;6.974;2023-04-06T05:05:53;20.40;;;13.60;;
52730;SDS011;38624;53.242;6.974;2023-04-06T05:08:19;22.77;;;14.33;;
52730;SDS011;38624;53.242;6.974;2023-04-06T05:10:45;19.03;;;13.37;;
52730;SDS011;38624;53.242;6.974;2023-04-06T05:13:13;21.17;;;14.73;;
52730;SDS011;38624;53.242;6.974;2023-04-06T05:15:39;19.70;;;13.82;;
52730;SDS011;38624;53.242;6.974;2023-04-06T05:18:06;19.53;;;13.77;;
52730;SDS011;38624;53.242;6.974;2023-04-06T05:20:33;21.38;;;13.90;;
52730;SDS011;38624;53.242;6.974;2023-04-06T05:22:59;19.45;;;13.50;;
52730;SDS011;38624;53.242;6.974;2023-04-06T05:25:25;18.50;;;13.52;;
52730;SDS011;38624;53.242;6.974;2023-04-06T05:27:51;21.40;;;13.90;;
52730;SDS011;38624;53.242;6.974;2023-04-06T05:30:17;18.83;;;14.07;;
52730;SDS011;38624;53.242;6.974;2023-04-06T05:32:43;19.63;;;13.60;;
52730;SDS011;38624;53.242;6.974;2023-04-06T05:35:09;19.67;;;13.87;;
52730;SDS011;38624;53.242;6.974;2023-04-06T05:37:36;20.80;;;13.82;;
52730;SDS011;38624;53.242;6.974;2023-04-06T05:40:02;18.03;;;13.93;;
52730;SDS011;38624;53.242;6.974;2023-04-06T05:42:35;17.95;;;13.40;;
52730;SDS011;38624;53.242;6.974;2023-04-06T05:45:06;19.48;;;14.07;;
52730;SDS011;38624;53.242;6.974;2023-04-06T05:47:32;19.20;;;13.27;;
52730;SDS011;38624;53.242;6.974;2023-04-06T05:49:58;20.33;;;13.40;;
52730;SDS011;38624;53.242;6.974;2023-04-06T05:52:23;18.23;;;13.37;;
52730;SDS011;38624;53.242;6.974;2023-04-06T05:54:49;18.30;;;13.33;;
52730;SDS011;38624;53.242;6.974;2023-04-06T05:57:15;17.17;;;12.53;;
52730;SDS011;38624;53.242;6.974;2023-04-06T05:59:44;20.02;;;12.77;;
52730;SDS011;38624;53.242;6.974;2023-04-06T06:02:09;16.70;;;12.45;;
52730;SDS011;38624;53.242;6.974;2023-04-06T06:04:35;17.43;;;12.90;;
52730;SDS011;38624;53.242;6.974;2023-04-06T06:07:01;19.07;;;12.03;;
52730;SDS011;38624;53.242;6.974;2023-04-06T06:09:27;18.70;;;12.88;;
52730;SDS011;38624;53.242;6.974;2023-04-06T06:11:52;23.07;;;13.57;;
52730;SDS011;38624;53.242;6.974;2023-04-06T06:14:18;21.00;;;12.43;;
52730;SDS011;38624;53.242;6.974;2023-04-06T06:16:44;18.80;;;12.50;;
52730;SDS011;38624;53.242;6.974;2023-04-06T06:19:09;16.55;;;11.73;;
52730;SDS011;38624;53.242;6.974;2023-04-06T06:21:35;16.02;;;11.95;;
52730;SDS011;38624;53.242;6.974;2023-04-06T06:24:01;15.50;;;11.80;;
52730;SDS011;38624;53.242;6.974;2023-04-06T06:26:27;16.30;;;11.87;;
52730;SDS011;38624;53.242;6.974;2023-04-06T06:28:52;15.85;;;11.35;;
52730;SDS011;38624;53.242;6.974;2023-04-06T06:31:18;14.65;;;10.90;;
52730;SDS011;38624;53.242;6.974;2023-04-06T06:33:48;18.33;;;11.77;;
52730;SDS011;38624;53.242;6.974;2023-04-06T06:36:16;15.27;;;11.00;;
52730;SDS011;38624;53.242;6.974;2023-04-06T06:38:42;14.70;;;10.65;;
52730;SDS011;38624;53.242;6.974;2023-04-06T06:41:08;17.63;;;12.23;;
52730;SDS011;38624;53.242;6.974;2023-04-06T06:43:34;16.40;;;11.50;;
52730;SDS011;38624;53.242;6.974;2023-04-06T06:46:00;18.75;;;11.82;;
52730;SDS011;38624;53.242;6.974;2023-04-06T06:48:26;16.05;;;11.45;;
52730;SDS011;38624;53.242;6.974;2023-04-06T06:50:52;14.30;;;11.07;;
52730;SDS011;38624;53.242;6.974;2023-04-06T06:53:17;17.00;;;11.63;;
52730;SDS011;38624;53.242;6.974;2023-04-06T06:55:43;15.25;;;11.50;;
52730;SDS011;38624;53.242;6.974;2023-04-06T06:58:09;16.08;;;10.90;;
52730;SDS011;38624;53.242;6.974;2023-04-06T07:00:35;14.90;;;10.90;;
52730;SDS011;38624;53.242;6.974;2023-04-06T07:03:01;15.38;;;10.38;;
52730;SDS011;38624;53.242;6.974;2023-04-06T07:05:27;14.48;;;10.05;;
52730;SDS011;38624;53.242;6.974;2023-04-06T07:07:53;15.55;;;10.90;;
52730;SDS011;38624;53.242;6.974;2023-04-06T07:10:19;12.90;;;10.13;;
52730;SDS011;38624;53.242;6.974;2023-04-06T07:12:45;14.60;;;10.65;;
52730;SDS011;38624;53.242;6.974;2023-04-06T07:15:11;18.15;;;10.98;;
52730;SDS011;38624;53.242;6.974;2023-04-06T07:17:37;14.57;;;10.43;;
52730;SDS011;38624;53.242;6.974;2023-04-06T07:20:03;14.07;;;10.52;;
52730;SDS011;38624;53.242;6.974;2023-04-06T07:22:29;12.82;;;9.82;;
52730;SDS011;38624;53.242;6.974;2023-04-06T07:24:55;14.10;;;10.18;;
52730;SDS011;38624;53.242;6.974;2023-04-06T07:27:21;15.45;;;9.93;;
52730;SDS011;38624;53.242;6.974;2023-04-06T07:29:47;13.48;;;8.63;;
52730;SDS011;38624;53.242;6.974;2023-04-06T07:32:13;16.58;;;10.20;;
52730;SDS011;38624;53.242;6.974;2023-04-06T07:34:38;14.88;;;9.60;;
52730;SDS011;38624;53.242;6.974;2023-04-06T07:37:04;13.45;;;9.57;;
52730;SDS011;38624;53.242;6.974;2023-04-06T07:39:30;14.23;;;9.60;;
52730;SDS011;38624;53.242;6.974;2023-04-06T07:41:56;12.57;;;9.63;;
52730;SDS011;38624;53.242;6.974;2023-04-06T07:44:21;13.52;;;9.30;;
52730;SDS011;38624;53.242;6.974;2023-04-06T07:46:47;13.07;;;9.18;;
52730;SDS011;38624;53.242;6.974;2023-04-06T07:49:13;11.43;;;7.53;;
52730;SDS011;38624;53.242;6.974;2023-04-06T07:51:39;14.10;;;9.48;;
52730;SDS011;38624;53.242;6.974;2023-04-06T07:54:05;13.90;;;9.40;;
52730;SDS011;38624;53.242;6.974;2023-04-06T07:56:31;16.42;;;10.40;;
52730;SDS011;38624;53.242;6.974;2023-04-06T07:58:56;13.23;;;9.50;;
52730;SDS011;38624;53.242;6.974;2023-04-06T08:01:23;13.82;;;8.88;;
52730;SDS011;38624;53.242;6.974;2023-04-06T08:03:49;16.95;;;9.27;;
52730;SDS011;38624;53.242;6.974;2023-04-06T08:06:16;15.57;;;9.48;;
52730;SDS011;38624;53.242;6.974;2023-04-06T08:08:42;13.18;;;9.45;;
52730;SDS011;38624;53.242;6.974;2023-04-06T08:11:08;13.70;;;9.32;;
52730;SDS011;38624;53.242;6.974;2023-04-06T08:13:34;15.17;;;9.73;;
52730;SDS011;38624;53.242;6.974;2023-04-06T08:16:00;14.37;;;9.97;;
52730;SDS011;38624;53.242;6.974;2023-04-06T08:18:27;14.95;;;9.48;;
52730;SDS011;38624;53.242;6.974;2023-04-06T08:20:54;14.93;;;9.13;;
52730;SDS011;38624;53.242;6.974;2023-04-06T08:23:20;16.20;;;9.77;;
52730;SDS011;38624;53.242;6.974;2023-04-06T08:25:46;15.38;;;9.50;;
52730;SDS011;38624;53.242;6.974;2023-04-06T08:28:12;13.98;;;9.55;;
52730;SDS011;38624;53.242;6.974;2023-04-06T08:30:40;13.27;;;8.40;;
52730;SDS011;38624;53.242;6.974;2023-04-06T08:33:07;14.48;;;9.43;;
52730;SDS011;38624;53.242;6.974;2023-04-06T08:35:32;12.38;;;9.00;;
52730;SDS011;38624;53.242;6.974;2023-04-06T08:37:58;13.65;;;8.75;;
52730;SDS011;38624;53.242;6.974;2023-04-06T08:40:24;10.80;;;8.57;;
52730;SDS011;38624;53.242;6.974;2023-04-06T08:42:52;15.27;;;9.05;;
52730;SDS011;38624;53.242;6.974;2023-04-06T08:45:19;13.55;;;9.23;;
52730;SDS011;38624;53.242;6.974;2023-04-06T08:47:46;13.80;;;10.55;;
52730;SDS011;38624;53.242;6.974;2023-04-06T08:50:16;13.70;;;9.82;;
52730;SDS011;38624;53.242;6.974;2023-04-06T08:52:43;12.32;;;9.02;;
52730;SDS011;38624;53.242;6.974;2023-04-06T08:55:11;14.52;;;9.25;;
52730;SDS011;38624;53.242;6.974;2023-04-06T08:57:37;13.68;;;8.93;;
52730;SDS011;38624;53.242;6.974;2023-04-06T09:00:04;13.98;;;9.70;;
52730;SDS011;38624;53.242;6.974;2023-04-06T09:02:31;12.30;;;7.95;;
52730;SDS011;38624;53.242;6.974;2023-04-06T09:04:57;13.07;;;9.00;;
52730;SDS011;38624;53.242;6.974;2023-04-06T09:07:24;13.10;;;9.05;;
52730;SDS011;38624;53.242;6.974;2023-04-06T09:09:50;14.82;;;9.32;;
52730;SDS011;38624;53.242;6.974;2023-04-06T09:12:26;12.60;;;9.77;;
52730;SDS011;38624;53.242;6.974;2023-04-06T09:14:54;12.55;;;9.02;;
52730;SDS011;38624;53.242;6.974;2023-04-06T09:19:47;10.95;;;7.68;;
52730;SDS011;38624;53.242;6.974;2023-04-06T09:22:13;14.82;;;8.70;;
52730;SDS011;38624;53.242;6.974;2023-04-06T09:24:40;14.02;;;9.40;;
52730;SDS011;38624;53.242;6.974;2023-04-06T09:27:15;11.68;;;8.32;;
52730;SDS011;38624;53.242;6.974;2023-04-06T09:29:42;13.80;;;9.30;;
52730;SDS011;38624;53.242;6.974;2023-04-06T09:32:08;15.80;;;8.23;;
52730;SDS011;38624;53.242;6.974;2023-04-06T09:34:41;15.18;;;9.15;;
52730;SDS011;38624;53.242;6.974;2023-04-06T09:37:17;11.52;;;9.07;;
52730;SDS011;38624;53.242;6.974;2023-04-06T09:39:44;11.55;;;8.30;;
52730;SDS011;38624;53.242;6.974;2023-04-06T09:42:12;13.02;;;9.38;;
52730;SDS011;38624;53.242;6.974;2023-04-06T09:44:49;14.93;;;9.38;;
52730;SDS011;38624;53.242;6.974;2023-04-06T09:47:15;13.43;;;7.63;;
52730;SDS011;38624;53.242;6.974;2023-04-06T09:49:41;11.90;;;6.90;;
52730;SDS011;38624;53.242;6.974;2023-04-06T09:52:10;16.40;;;8.93;;
52730;SDS011;38624;53.242;6.974;2023-04-06T09:54:37;15.95;;;9.70;;
52730;SDS011;38624;53.242;6.974;2023-04-06T10:02:05;14.07;;;8.80;;
52730;SDS011;38624;53.242;6.974;2023-04-06T10:04:43;13.13;;;9.10;;
52730;SDS011;38624;53.242;6.974;2023-04-06T10:07:14;11.95;;;7.97;;
52730;SDS011;38624;53.242;6.974;2023-04-06T10:12:09;11.05;;;7.20;;
52730;SDS011;38624;53.242;6.974;2023-04-06T10:14:35;13.18;;;9.50;;
52730;SDS011;38624;53.242;6.974;2023-04-06T10:17:04;15.55;;;9.48;;
52730;SDS011;38624;53.242;6.974;2023-04-06T10:19:41;15.18;;;9.98;;
52730;SDS011;38624;53.242;6.974;2023-04-06T10:22:16;14.60;;;9.40;;
52730;SDS011;38624;53.242;6.974;2023-04-06T10:24:47;15.38;;;10.43;;
52730;SDS011;38624;53.242;6.974;2023-04-06T10:27:13;13.57;;;9.85;;
52730;SDS011;38624;53.242;6.974;2023-04-06T10:29:46;12.75;;;8.90;;
52730;SDS011;38624;53.242;6.974;2023-04-06T10:32:14;12.90;;;9.10;;
52730;SDS011;38624;53.242;6.974;2023-04-06T10:34:39;14.40;;;10.90;;
52730;SDS011;38624;53.242;6.974;2023-04-06T10:37:15;15.73;;;10.43;;
52730;SDS011;38624;53.242;6.974;2023-04-06T10:39:52;17.23;;;10.98;;
52730;SDS011;38624;53.242;6.974;2023-04-06T10:42:36;18.02;;;11.90;;
52730;SDS011;38624;53.242;6.974;2023-04-06T10:45:05;17.70;;;11.95;;
52730;SDS011;38624;53.242;6.974;2023-04-06T10:47:39;15.60;;;10.52;;
52730;SDS011;38624;53.242;6.974;2023-04-06T10:50:05;17.55;;;12.02;;
52730;SDS011;38624;53.242;6.974;2023-04-06T10:52:31;17.30;;;12.07;;
52730;SDS011;38624;53.242;6.974;2023-04-06T10:54:57;20.80;;;13.48;;
52730;SDS011;38624;53.242;6.974;2023-04-06T10:57:29;17.60;;;11.77;;
52730;SDS011;38624;53.242;6.974;2023-04-06T10:59:57;20.20;;;12.40;;
52730;SDS011;38624;53.242;6.974;2023-04-06T11:02:23;18.20;;;12.65;;
52730;SDS011;38624;53.242;6.974;2023-04-06T11:04:58;20.25;;;12.40;;
52730;SDS011;38624;53.242;6.974;2023-04-06T11:07:27;19.85;;;14.00;;
52730;SDS011;38624;53.242;6.974;2023-04-06T11:09:55;23.02;;;14.65;;
52730;SDS011;38624;53.242;6.974;2023-04-06T11:12:30;20.17;;;14.40;;
52730;SDS011;38624;53.242;6.974;2023-04-06T11:14:59;19.17;;;13.23;;
52730;SDS011;38624;53.242;6.974;2023-04-06T11:17:28;18.98;;;13.10;;
52730;SDS011;38624;53.242;6.974;2023-04-06T11:19:54;20.05;;;14.15;;
52730;SDS011;38624;53.242;6.974;2023-04-06T11:24:46;20.48;;;13.65;;
52730;SDS011;38624;53.242;6.974;2023-04-06T11:27:14;20.98;;;13.23;;
52730;SDS011;38624;53.242;6.974;2023-04-06T11:29:43;20.75;;;13.57;;
52730;SDS011;38624;53.242;6.974;2023-04-06T11:32:11;20.85;;;14.15;;
52730;SDS011;38624;53.242;6.974;2023-04-06T11:34:44;21.77;;;14.35;;
52730;SDS011;38624;53.242;6.974;2023-04-06T11:37:12;24.30;;;15.15;;
52730;SDS011;38624;53.242;6.974;2023-04-06T11:39:51;19.63;;;14.88;;
52730;SDS011;38624;53.242;6.974;2023-04-06T11:42:26;23.08;;;15.50;;
52730;SDS011;38624;53.242;6.974;2023-04-06T11:44:56;23.73;;;15.80;;
52730;SDS011;38624;53.242;6.974;2023-04-06T11:47:27;21.55;;;15.63;;
52730;SDS011;38624;53.242;6.974;2023-04-06T11:50:05;22.92;;;16.15;;
52730;SDS011;38624;53.242;6.974;2023-04-06T11:52:32;23.35;;;15.57;;
52730;SDS011;38624;53.242;6.974;2023-04-06T11:54:58;22.98;;;16.27;;
52730;SDS011;38624;53.242;6.974;2023-04-06T11:57:24;22.50;;;16.65;;
52730;SDS011;38624;53.242;6.974;2023-04-06T11:59:50;25.42;;;16.73;;
52730;SDS011;38624;53.242;6.974;2023-04-06T12:02:16;23.67;;;16.80;;
52730;SDS011;38624;53.242;6.974;2023-04-06T12:04:43;23.10;;;16.75;;
52730;SDS011;38624;53.242;6.974;2023-04-06T12:07:09;25.07;;;17.67;;
52730;SDS011;38624;53.242;6.974;2023-04-06T12:12:02;23.63;;;16.77;;
52730;SDS011;38624;53.242;6.974;2023-04-06T12:14:28;25.15;;;16.88;;
52730;SDS011;38624;53.242;6.974;2023-04-06T12:16:56;30.00;;;17.83;;
52730;SDS011;38624;53.242;6.974;2023-04-06T12:21:50;23.35;;;17.92;;
52730;SDS011;38624;53.242;6.974;2023-04-06T12:24:17;22.15;;;17.15;;
52730;SDS011;38624;53.242;6.974;2023-04-06T12:26:43;24.37;;;17.90;;
52730;SDS011;38624;53.242;6.974;2023-04-06T12:29:09;23.60;;;18.47;;
52730;SDS011;38624;53.242;6.974;2023-04-06T12:31:35;26.17;;;17.87;;
52730;SDS011;38624;53.242;6.974;2023-04-06T12:34:03;21.50;;;17.10;;
52730;SDS011;38624;53.242;6.974;2023-04-06T12:36:29;23.10;;;18.35;;
52730;SDS011;38624;53.242;6.974;2023-04-06T12:38:56;25.35;;;18.95;;
52730;SDS011;38624;53.242;6.974;2023-04-06T12:41:22;24.27;;;18.43;;
52730;SDS011;38624;53.242;6.974;2023-04-06T12:43:48;22.90;;;17.93;;
52730;SDS011;38624;53.242;6.974;2023-04-06T12:48:40;22.48;;;17.80;;
52730;SDS011;38624;53.242;6.974;2023-04-06T12:51:06;23.10;;;17.83;;
52730;SDS011;38624;53.242;6.974;2023-04-06T12:53:32;22.73;;;17.60;;
52730;SDS011;38624;53.242;6.974;2023-04-06T12:56:00;25.08;;;19.00;;
52730;SDS011;38624;53.242;6.974;2023-04-06T12:58:26;24.25;;;18.30;;
52730;SDS011;38624;53.242;6.974;2023-04-06T13:00:52;26.20;;;19.52;;
52730;SDS011;38624;53.242;6.974;2023-04-06T13:03:18;27.60;;;19.33;;
52730;SDS011;38624;53.242;6.974;2023-04-06T13:05:46;23.17;;;18.77;;
52730;SDS011;38624;53.242;6.974;2023-04-06T13:08:13;23.90;;;19.67;;
52730;SDS011;38624;53.242;6.974;2023-04-06T13:10:49;24.50;;;19.38;;
52730;SDS011;38624;53.242;6.974;2023-04-06T13:13:15;24.75;;;19.17;;
52730;SDS011;38624;53.242;6.974;2023-04-06T13:15:42;26.23;;;19.50;;
52730;SDS011;38624;53.242;6.974;2023-04-06T13:18:08;26.43;;;19.23;;
52730;SDS011;38624;53.242;6.974;2023-04-06T13:20:34;22.65;;;18.80;;
52730;SDS011;38624;53.242;6.974;2023-04-06T13:23:00;25.90;;;19.10;;
52730;SDS011;38624;53.242;6.974;2023-04-06T13:25:26;27.57;;;19.57;;
52730;SDS011;38624;53.242;6.974;2023-04-06T13:27:53;26.30;;;19.38;;
52730;SDS011;38624;53.242;6.974;2023-04-06T13:30:19;25.77;;;19.08;;
52730;SDS011;38624;53.242;6.974;2023-04-06T13:32:45;26.30;;;19.77;;
52730;SDS011;38624;53.242;6.974;2023-04-06T13:35:11;29.73;;;21.10;;
52730;SDS011;38624;53.242;6.974;2023-04-06T13:37:37;26.73;;;21.20;;
52730;SDS011;38624;53.242;6.974;2023-04-06T13:40:03;29.05;;;21.55;;
52730;SDS011;38624;53.242;6.974;2023-04-06T13:42:30;26.42;;;19.63;;
52730;SDS011;38624;53.242;6.974;2023-04-06T13:44:56;26.83;;;19.92;;
52730;SDS011;38624;53.242;6.974;2023-04-06T13:47:22;27.73;;;20.10;;
52730;SDS011;38624;53.242;6.974;2023-04-06T13:49:49;28.33;;;20.73;;
52730;SDS011;38624;53.242;6.974;2023-04-06T13:52:16;30.35;;;20.67;;
52730;SDS011;38624;53.242;6.974;2023-04-06T13:54:42;26.57;;;20.40;;
52730;SDS011;38624;53.242;6.974;2023-04-06T13:57:08;26.70;;;19.77;;
52730;SDS011;38624;53.242;6.974;2023-04-06T13:59:34;26.43;;;19.83;;
52730;SDS011;38624;53.242;6.974;2023-04-06T14:02:00;26.00;;;20.40;;
52730;SDS011;38624;53.242;6.974;2023-04-06T14:04:27;27.40;;;20.95;;
52730;SDS011;38624;53.242;6.974;2023-04-06T14:06:53;28.03;;;20.63;;
52730;SDS011;38624;53.242;6.974;2023-04-06T14:09:18;27.93;;;20.00;;
52730;SDS011;38624;53.242;6.974;2023-04-06T14:11:44;25.43;;;20.00;;
52730;SDS011;38624;53.242;6.974;2023-04-06T14:14:10;26.58;;;20.52;;
52730;SDS011;38624;53.242;6.974;2023-04-06T14:16:36;28.07;;;20.57;;
52730;SDS011;38624;53.242;6.974;2023-04-06T14:19:02;28.67;;;20.63;;
52730;SDS011;38624;53.242;6.974;2023-04-06T14:21:27;26.37;;;19.97;;
52730;SDS011;38624;53.242;6.974;2023-04-06T14:23:53;27.87;;;20.77;;
52730;SDS011;38624;53.242;6.974;2023-04-06T14:26:20;28.58;;;20.38;;
52730;SDS011;38624;53.242;6.974;2023-04-06T14:28:45;28.90;;;21.20;;
52730;SDS011;38624;53.242;6.974;2023-04-06T14:31:12;27.30;;;20.43;;
52730;SDS011;38624;53.242;6.974;2023-04-06T14:33:40;29.42;;;19.75;;
52730;SDS011;38624;53.242;6.974;2023-04-06T14:36:07;28.10;;;19.98;;
52730;SDS011;38624;53.242;6.974;2023-04-06T14:38:34;25.58;;;19.17;;
52730;SDS011;38624;53.242;6.974;2023-04-06T14:41:00;36.28;;;21.45;;
52730;SDS011;38624;53.242;6.974;2023-04-06T14:43:26;31.53;;;21.03;;